Skip Navigation Links Skip Navigation Links

Current Weather

North Perry, Hollywood, Fla.

For information only: do not use for flight planning or navigation.
Latest weather
Observation time Thursday, January 27, 2022 10:53 PM EST
Local time Thursday, January 27, 2022 11:54 PM EST
Flight conditions Visual Meteorological Conditions
Winds
Wind direction North (350°)
Wind speed 6 mph
Visibility 10 mi.
Sky condition
Ceiling unlimited
Sky clear
Temperature 67°F
Dewpoint 63°F
Altimeter 30.06 in.Hg
Derived measurements
Relative humidity 87%
Density altitude 635 ft.
Sea-level pressure 30.06 in.Hg
Remarks
Automated weather observing station with precipitation discriminator.
METAR KHWO 280353Z 35005KT 10SM CLR 19/17 A3006 RMK AO2 SLP178 T01940172

Settings

Location code

InnerDrive.Weather 4.0.6770.0 Release CLR 4.0.30319.42000
Copyright ©2018 Inner Drive Technology. All rights reserved. Portions Copyright ©1986-2018 David Braverman.

Find weather

Site navigation


Skip Navigation Links

Place info

Page info

PayPal - The safer, easier way to pay online!

Return home.

Copyright ©2022 Inner Drive Technology. Purveyors of fine, hand-crafted computer software. Page printed 2022-01-28T04:54:09 UTC.